Idabel, OK

5:20 AM CST on February 22, 2017 (GMT -0600)
Idabel

Weather History for K4O4 - January, 2014

Change the Weather History Date:

Saturday, January 18, 2014

  Actual Average (KPRX) Record (KPRX)
Temperature  
Mean Temperature 45 °F -  
Max Temperature 64 °F 51 °F 69 °F (2006)
Min Temperature 26 °F 33 °F 19 °F (1997)
Degree Days  
Heating Degree Days 20    
Moisture  
Dew Point 23 °F    
Average Humidity 44    
Maximum Humidity 80    
Minimum Humidity 24    
Precipitation  
Precipitation 0.00 in - - ()
Sea Level Pressure  
Sea Level Pressure 30.08 in    
Wind  
Wind Speed 8 mph (WSW)    
Max Wind Speed 24 mph    
Max Gust Speed 39 mph    
Visibility 10 miles    
Events      
Averages and records for this station are not official NWS values.
T = Trace of Precipitation, MM = Missing Value Source: NWS Daily Summary

Daily Weather History Graph

Daily Weather History Graph

Search for Another Location

Airport or City:

Trip Planner

Search our weather history database for the weather conditions in past years. The results will help you decide how hot, cold, wet, or windy it might be!

Date:

Astronomy

Jan. 18, 2014 Rise Set
Actual Time 7:23 AM CST 5:36 PM CST
Civil Twilight 6:56 AM CST 6:03 PM CST
Nautical Twilight 6:26 AM CST 6:34 PM CST
Astronomical Twilight 5:56 AM CST 7:03 PM CST
Moon 8:09 PM CST (1/18) 8:32 AM CST (1/18)
Length of Visible Light 11h 06m
Length of Day
10h 12m
Waning Gibbous, 94% of the Moon is Illuminated
Jan 18
Waning Gibbous
Jan 23
Last Quarter
Jan 30
New
Feb 6
First Quarter
Feb 14
Full

Hourly Weather History & Observations

Time (CST) Temp. Windchill Dew Point Humidity Pressure Visibility Wind Dir Wind Speed Gust Speed Precip Events Conditions
12:15 AM 32.0 °F 26.4 °F 17.6 °F 55% 30.19 in 10.0 mi South 5.8 mph - N/A   Clear
12:35 AM 32.0 °F 27.5 °F 17.6 °F 55% 30.19 in 10.0 mi South 4.6 mph - N/A   Clear
12:59 AM 30.2 °F 25.4 °F 17.6 °F 60% 30.18 in 10.0 mi South 4.6 mph - N/A   Clear
1:39 AM 32.0 °F 27.5 °F 17.6 °F 55% 30.18 in 10.0 mi South 4.6 mph - N/A   Clear
1:59 AM 30.2 °F 25.4 °F 17.6 °F 60% 30.18 in 10.0 mi South 4.6 mph - N/A   Clear
2:15 AM 32.0 °F 25.6 °F 17.6 °F 55% 30.17 in 10.0 mi South 6.9 mph - N/A   Clear
2:39 AM 30.2 °F 24.3 °F 15.8 °F 55% 30.17 in 10.0 mi South 5.8 mph - N/A   Clear
2:55 AM 32.0 °F 28.7 °F 17.6 °F 55% 30.17 in 10.0 mi South 3.5 mph - N/A   Clear
3:19 AM 30.2 °F 26.7 °F 15.8 °F 55% 30.17 in 10.0 mi South 3.5 mph - N/A   Clear
3:39 AM 30.2 °F 26.7 °F 15.8 °F 55% 30.17 in 10.0 mi South 3.5 mph - N/A   Clear
3:55 AM 30.2 °F - 17.6 °F 60% 30.16 in 10.0 mi Calm Calm - N/A   Clear
3:59 AM 28.4 °F - 15.8 °F 59% 30.16 in 10.0 mi Calm Calm - N/A   Clear
4:39 AM 26.6 °F - 19.4 °F 74% 30.15 in 10.0 mi Calm Calm - N/A   Clear
4:59 AM 26.6 °F - 19.4 °F 74% 30.14 in 10.0 mi Calm Calm - N/A   Clear
5:19 AM 26.6 °F 22.6 °F 19.4 °F 74% 30.14 in 10.0 mi ESE 3.5 mph - N/A   Clear
5:35 AM 26.6 °F 20.0 °F 21.2 °F 80% 30.14 in 10.0 mi ESE 5.8 mph - N/A   Clear
6:15 AM 26.6 °F 21.2 °F 19.4 °F 74% 30.13 in 10.0 mi ESE 4.6 mph - N/A   Clear
6:35 AM 26.6 °F 22.6 °F 19.4 °F 74% 30.12 in 10.0 mi ESE 3.5 mph - N/A   Clear
7:55 AM 26.6 °F - 21.2 °F 80% 30.12 in 10.0 mi Calm Calm - N/A   Clear
8:15 AM 28.4 °F - 23.0 °F 80% 30.12 in 10.0 mi Calm Calm - N/A   Clear
8:35 AM 32.0 °F - 24.8 °F 75% 30.12 in 10.0 mi Calm Calm - N/A   Clear
8:55 AM 33.8 °F - 26.6 °F 75% 30.12 in 10.0 mi Calm Calm - N/A   Clear
9:15 AM 37.4 °F 32.1 °F 24.8 °F 60% 30.12 in 10.0 mi SW 6.9 mph - N/A   Clear
9:35 AM 41.0 °F 34.7 °F 24.8 °F 53% 30.12 in 10.0 mi SW 10.4 mph - N/A   Clear
9:55 AM 42.8 °F 37.0 °F 24.8 °F 49% 30.12 in 10.0 mi SW 10.4 mph - N/A   Clear
10:15 AM 46.4 °F 42.4 °F 24.8 °F 43% 30.11 in 10.0 mi SW 8.1 mph - N/A   Clear
10:35 AM 50.0 °F - 23.0 °F 35% 30.11 in 10.0 mi WSW 18.4 mph 24.2 mph N/A   Clear
10:55 AM 53.6 °F - 23.0 °F 30% 30.10 in 10.0 mi WSW 18.4 mph 26.5 mph N/A   Clear
11:15 AM 55.4 °F - 23.0 °F 29% 30.09 in 10.0 mi WSW 13.8 mph 31.1 mph N/A   Clear
11:35 AM 55.4 °F - 23.0 °F 29% 30.08 in 10.0 mi WSW 24.2 mph 39.1 mph N/A   Clear
11:55 AM 57.2 °F - 23.0 °F 27% 30.07 in 10.0 mi WSW 24.2 mph 32.2 mph N/A   Clear
12:15 PM 59.0 °F - 23.0 °F 25% 30.05 in 10.0 mi WSW 24.2 mph 31.1 mph N/A   Clear
12:35 PM 59.0 °F - 23.0 °F 25% 30.03 in 10.0 mi WSW 19.6 mph 32.2 mph N/A   Clear
12:55 PM 60.8 °F - 24.8 °F 25% 30.02 in 10.0 mi West 21.9 mph 29.9 mph N/A   Clear
1:15 PM 62.6 °F - 24.8 °F 24% 29.99 in 10.0 mi WSW 23.0 mph 32.2 mph N/A   Clear
1:35 PM 62.6 °F - 26.6 °F 26% 29.99 in 10.0 mi WSW 23.0 mph 26.5 mph N/A   Clear
1:55 PM 62.6 °F - 26.6 °F 26% 29.97 in 10.0 mi WSW 17.3 mph 33.4 mph N/A   Clear
2:15 PM 62.6 °F - 26.6 °F 26% 29.96 in 10.0 mi WSW 19.6 mph 32.2 mph N/A   Clear
2:35 PM 62.6 °F - 26.6 °F 26% 29.96 in 10.0 mi WSW 20.7 mph 28.8 mph N/A   Clear
2:55 PM 64.4 °F - 26.6 °F 24% 29.97 in 10.0 mi WSW 19.6 mph 27.6 mph N/A   Clear
3:15 PM 64.4 °F - 26.6 °F 24% 29.97 in 10.0 mi WSW 18.4 mph 28.8 mph N/A   Clear
3:35 PM 62.6 °F - 26.6 °F 26% 29.97 in 10.0 mi WSW 19.6 mph 28.8 mph N/A   Clear
3:55 PM 62.6 °F - 26.6 °F 26% 29.97 in 10.0 mi WSW 17.3 mph 21.9 mph N/A   Clear
4:15 PM 62.6 °F - 26.6 °F 26% 29.97 in 10.0 mi WSW 17.3 mph 26.5 mph N/A   Clear
4:35 PM 62.6 °F - 28.4 °F 27% 29.96 in 10.0 mi WSW 19.6 mph 25.3 mph N/A   Clear
4:55 PM 62.6 °F - 28.4 °F 27% 29.96 in 10.0 mi WSW 11.5 mph 20.7 mph N/A   Clear
5:15 PM 60.8 °F - 28.4 °F 29% 29.97 in 10.0 mi West 10.4 mph - N/A   Clear
5:35 PM 59.0 °F - 28.4 °F 31% 29.98 in 10.0 mi West 8.1 mph - N/A   Clear
5:55 PM 57.2 °F - 28.4 °F 33% 29.99 in 10.0 mi WSW 8.1 mph - N/A   Clear
7:01 PM 53.6 °F - 28.4 °F 38% 30.03 in 10.0 mi NW 9.2 mph - N/A   Clear
7:19 PM 53.6 °F - 28.4 °F 38% 30.03 in 10.0 mi WNW 5.8 mph - N/A   Clear
7:39 PM 53.6 °F - 26.6 °F 35% 30.04 in 10.0 mi WNW 4.6 mph - N/A   Clear
7:59 PM 51.8 °F - 26.6 °F 38% 30.05 in 10.0 mi NNW 9.2 mph - N/A   Clear
8:35 PM 50.0 °F - 26.6 °F 40% 30.07 in 10.0 mi NNW 8.1 mph - N/A   Clear
8:40 PM 51.8 °F - 24.8 °F 35% 30.07 in 10.0 mi NNW 8.1 mph - N/A   Clear
9:00 PM 50.0 °F - 26.6 °F 40% 30.07 in 10.0 mi NW 9.2 mph - N/A   Clear
9:15 PM 50.0 °F - 24.8 °F 37% 30.08 in 10.0 mi NW 10.4 mph - N/A   Clear
9:20 PM 50.0 °F - 24.8 °F 37% 30.08 in 10.0 mi NW 10.4 mph - N/A   Clear
9:35 PM 50.0 °F - 23.0 °F 35% 30.09 in 10.0 mi NW 9.2 mph - N/A   Clear
9:55 PM 50.0 °F - 23.0 °F 35% 30.10 in 10.0 mi NNW 10.4 mph - N/A   Clear
10:15 PM 50.0 °F - 23.0 °F 35% 30.11 in 10.0 mi NNW 10.4 mph 18.4 mph N/A   Clear
10:35 PM 50.0 °F - 23.0 °F 35% 30.12 in 10.0 mi NNW 8.1 mph - N/A   Clear
10:55 PM 46.4 °F 42.4 °F 23.0 °F 40% 30.12 in 10.0 mi NW 8.1 mph - N/A   Clear
11:15 PM 46.4 °F 42.4 °F 23.0 °F 40% 30.12 in 10.0 mi NW 8.1 mph - N/A   Clear
11:35 PM 44.6 °F 38.8 °F 23.0 °F 43% 30.12 in 10.0 mi NNW 11.5 mph - N/A   Clear
11:55 PM 44.6 °F 40.2 °F 23.0 °F 43% 30.13 in 10.0 mi NNW 8.1 mph - N/A   Clear